sensor_id;sensor_type;location;lat;lon;timestamp;pressure;altitude;pressure_sealevel;temperature;humidity
56182;BME280;51963;46.052;14.544;2022-12-13T00:00:37;97911.34;;;-2.66;100.00
56182;BME280;51963;46.052;14.544;2022-12-13T00:03:02;97923.91;;;-2.84;100.00
56182;BME280;51963;46.052;14.544;2022-12-13T00:05:28;97922.59;;;-2.89;100.00
56182;BME280;51963;46.052;14.544;2022-12-13T00:07:54;97925.47;;;-2.70;100.00
56182;BME280;51963;46.052;14.544;2022-12-13T00:10:19;97915.09;;;-2.81;100.00
56182;BME280;51963;46.052;14.544;2022-12-13T00:12:45;97921.34;;;-2.72;100.00
56182;BME280;51963;46.052;14.544;2022-12-13T00:15:11;97913.06;;;-3.00;100.00
56182;BME280;51963;46.052;14.544;2022-12-13T00:17:36;97905.59;;;-2.69;100.00
56182;BME280;51963;46.052;14.544;2022-12-13T00:20:03;97915.44;;;-2.86;100.00
56182;BME280;51963;46.052;14.544;2022-12-13T00:22:29;97883.63;;;-3.11;100.00
56182;BME280;51963;46.052;14.544;2022-12-13T00:24:54;97913.59;;;-2.72;100.00
56182;BME280;51963;46.052;14.544;2022-12-13T00:27:23;97906.06;;;-2.64;100.00
56182;BME280;51963;46.052;14.544;2022-12-13T00:29:49;97917.38;;;-2.65;100.00
56182;BME280;51963;46.052;14.544;2022-12-13T00:32:15;97889.34;;;-2.83;100.00
56182;BME280;51963;46.052;14.544;2022-12-13T00:34:41;97903.50;;;-2.64;100.00
56182;BME280;51963;46.052;14.544;2022-12-13T00:37:07;97911.25;;;-2.64;100.00
56182;BME280;51963;46.052;14.544;2022-12-13T00:39:32;97910.16;;;-2.73;100.00
56182;BME280;51963;46.052;14.544;2022-12-13T00:41:58;97922.09;;;-2.59;100.00
56182;BME280;51963;46.052;14.544;2022-12-13T00:44:24;97919.41;;;-2.46;100.00
56182;BME280;51963;46.052;14.544;2022-12-13T00:46:50;97913.38;;;-2.58;100.00
56182;BME280;51963;46.052;14.544;2022-12-13T00:49:16;97912.38;;;-2.91;100.00
56182;BME280;51963;46.052;14.544;2022-12-13T00:51:42;97921.31;;;-2.95;100.00
56182;BME280;51963;46.052;14.544;2022-12-13T00:54:08;97915.66;;;-2.89;100.00
56182;BME280;51963;46.052;14.544;2022-12-13T00:56:36;97919.81;;;-2.75;100.00
56182;BME280;51963;46.052;14.544;2022-12-13T00:59:02;97921.81;;;-2.78;100.00
56182;BME280;51963;46.052;14.544;2022-12-13T01:01:31;97916.66;;;-2.67;100.00
56182;BME280;51963;46.052;14.544;2022-12-13T01:03:58;97920.75;;;-2.76;100.00
56182;BME280;51963;46.052;14.544;2022-12-13T01:08:52;97915.50;;;-2.52;100.00
56182;BME280;51963;46.052;14.544;2022-12-13T01:11:18;97915.88;;;-2.56;100.00
56182;BME280;51963;46.052;14.544;2022-12-13T01:13:44;97918.00;;;-2.50;100.00
56182;BME280;51963;46.052;14.544;2022-12-13T01:16:11;97908.66;;;-2.64;100.00
56182;BME280;51963;46.052;14.544;2022-12-13T01:18:38;97912.91;;;-2.63;100.00
56182;BME280;51963;46.052;14.544;2022-12-13T01:21:11;97921.13;;;-2.69;100.00
56182;BME280;51963;46.052;14.544;2022-12-13T01:23:37;97895.22;;;-2.81;100.00
56182;BME280;51963;46.052;14.544;2022-12-13T01:26:05;97915.00;;;-2.80;100.00
56182;BME280;51963;46.052;14.544;2022-12-13T01:28:32;97918.28;;;-2.77;100.00
56182;BME280;51963;46.052;14.544;2022-12-13T01:31:00;97914.03;;;-2.90;100.00
56182;BME280;51963;46.052;14.544;2022-12-13T01:33:27;97917.09;;;-2.85;100.00
56182;BME280;51963;46.052;14.544;2022-12-13T01:35:53;97901.41;;;-2.95;100.00
56182;BME280;51963;46.052;14.544;2022-12-13T01:38:20;97907.72;;;-2.74;100.00
56182;BME280;51963;46.052;14.544;2022-12-13T01:40:50;97911.00;;;-2.72;100.00
56182;BME280;51963;46.052;14.544;2022-12-13T01:43:30;97920.16;;;-2.80;100.00
56182;BME280;51963;46.052;14.544;2022-12-13T01:46:15;97915.69;;;-2.77;100.00
56182;BME280;51963;46.052;14.544;2022-12-13T01:48:47;97916.63;;;-2.78;100.00
56182;BME280;51963;46.052;14.544;2022-12-13T01:51:16;97913.78;;;-2.87;100.00
56182;BME280;51963;46.052;14.544;2022-12-13T01:53:45;97905.09;;;-2.86;100.00
56182;BME280;51963;46.052;14.544;2022-12-13T01:56:19;97909.78;;;-2.91;100.00
56182;BME280;51963;46.052;14.544;2022-12-13T01:58:48;97901.66;;;-2.86;100.00
56182;BME280;51963;46.052;14.544;2022-12-13T02:01:16;97901.13;;;-2.78;100.00
56182;BME280;51963;46.052;14.544;2022-12-13T02:03:43;97907.25;;;-2.68;100.00
56182;BME280;51963;46.052;14.544;2022-12-13T02:06:14;97911.72;;;-2.59;100.00
56182;BME280;51963;46.052;14.544;2022-12-13T02:08:43;97904.81;;;-2.58;100.00
56182;BME280;51963;46.052;14.544;2022-12-13T02:11:10;97902.31;;;-2.60;100.00
56182;BME280;51963;46.052;14.544;2022-12-13T02:13:37;97899.88;;;-2.61;100.00
56182;BME280;51963;46.052;14.544;2022-12-13T02:16:26;97901.50;;;-2.60;100.00
56182;BME280;51963;46.052;14.544;2022-12-13T02:21:38;97905.28;;;-2.53;100.00
56182;BME280;51963;46.052;14.544;2022-12-13T02:24:30;97902.81;;;-2.43;100.00
56182;BME280;51963;46.052;14.544;2022-12-13T02:37:50;97907.41;;;-2.36;100.00
56182;BME280;51963;46.052;14.544;2022-12-13T02:40:26;97924.69;;;-2.47;100.00
56182;BME280;51963;46.052;14.544;2022-12-13T02:43:00;97908.81;;;-2.54;100.00
56182;BME280;51963;46.052;14.544;2022-12-13T02:45:52;97916.22;;;-2.49;100.00
56182;BME280;51963;46.052;14.544;2022-12-13T02:48:23;97903.97;;;-2.47;100.00
56182;BME280;51963;46.052;14.544;2022-12-13T02:50:51;97908.22;;;-2.35;100.00
56182;BME280;51963;46.052;14.544;2022-12-13T02:53:19;97907.19;;;-2.32;100.00
56182;BME280;51963;46.052;14.544;2022-12-13T02:55:48;97908.94;;;-2.44;100.00
56182;BME280;51963;46.052;14.544;2022-12-13T02:58:27;97906.69;;;-2.60;100.00
56182;BME280;51963;46.052;14.544;2022-12-13T03:14:29;97895.75;;;-2.41;100.00
56182;BME280;51963;46.052;14.544;2022-12-13T03:16:59;97899.97;;;-2.40;100.00
56182;BME280;51963;46.052;14.544;2022-12-13T03:19:27;97891.28;;;-2.39;100.00
56182;BME280;51963;46.052;14.544;2022-12-13T03:21:53;97891.03;;;-2.59;100.00
56182;BME280;51963;46.052;14.544;2022-12-13T03:24:20;97900.44;;;-2.46;100.00
56182;BME280;51963;46.052;14.544;2022-12-13T03:26:47;97893.06;;;-2.51;100.00
56182;BME280;51963;46.052;14.544;2022-12-13T03:29:14;97895.63;;;-2.51;100.00
56182;BME280;51963;46.052;14.544;2022-12-13T03:31:40;97890.47;;;-2.51;100.00
56182;BME280;51963;46.052;14.544;2022-12-13T03:34:06;97898.09;;;-2.61;100.00
56182;BME280;51963;46.052;14.544;2022-12-13T03:36:32;97897.06;;;-2.94;100.00
56182;BME280;51963;46.052;14.544;2022-12-13T03:38:58;97904.75;;;-2.70;100.00
56182;BME280;51963;46.052;14.544;2022-12-13T03:41:25;97900.16;;;-2.89;100.00
56182;BME280;51963;46.052;14.544;2022-12-13T03:43:57;97892.22;;;-2.99;100.00
56182;BME280;51963;46.052;14.544;2022-12-13T03:46:23;97887.88;;;-3.10;100.00
56182;BME280;51963;46.052;14.544;2022-12-13T03:48:49;97877.59;;;-2.75;100.00
56182;BME280;51963;46.052;14.544;2022-12-13T03:51:15;97887.47;;;-2.81;100.00
56182;BME280;51963;46.052;14.544;2022-12-13T03:53:41;97891.88;;;-3.05;100.00
56182;BME280;51963;46.052;14.544;2022-12-13T03:56:08;97883.34;;;-2.83;100.00
56182;BME280;51963;46.052;14.544;2022-12-13T03:58:34;97875.66;;;-3.07;100.00
56182;BME280;51963;46.052;14.544;2022-12-13T04:01:00;97872.66;;;-3.14;100.00
56182;BME280;51963;46.052;14.544;2022-12-13T04:03:26;97870.69;;;-3.11;100.00
56182;BME280;51963;46.052;14.544;2022-12-13T04:05:52;97875.91;;;-2.99;100.00
56182;BME280;51963;46.052;14.544;2022-12-13T04:08:17;97874.06;;;-2.86;100.00
56182;BME280;51963;46.052;14.544;2022-12-13T04:10:43;97871.44;;;-2.97;100.00
56182;BME280;51963;46.052;14.544;2022-12-13T04:13:09;97875.94;;;-3.24;100.00
56182;BME280;51963;46.052;14.544;2022-12-13T04:15:54;97869.41;;;-3.05;100.00
56182;BME280;51963;46.052;14.544;2022-12-13T04:18:20;97873.56;;;-2.91;100.00
56182;BME280;51963;46.052;14.544;2022-12-13T04:20:46;97861.63;;;-2.58;100.00
56182;BME280;51963;46.052;14.544;2022-12-13T04:23:13;97873.16;;;-2.51;100.00
56182;BME280;51963;46.052;14.544;2022-12-13T04:25:40;97865.84;;;-2.45;100.00
56182;BME280;51963;46.052;14.544;2022-12-13T04:28:06;97858.56;;;-2.40;100.00
56182;BME280;51963;46.052;14.544;2022-12-13T04:30:33;97867.25;;;-2.41;100.00
56182;BME280;51963;46.052;14.544;2022-12-13T04:32:59;97859.72;;;-2.44;100.00
56182;BME280;51963;46.052;14.544;2022-12-13T04:35:25;97867.25;;;-2.41;100.00
56182;BME280;51963;46.052;14.544;2022-12-13T04:37:51;97865.63;;;-2.42;100.00
56182;BME280;51963;46.052;14.544;2022-12-13T04:40:17;97863.25;;;-2.45;100.00
56182;BME280;51963;46.052;14.544;2022-12-13T04:42:44;97839.56;;;-2.86;100.00
56182;BME280;51963;46.052;14.544;2022-12-13T04:45:16;97875.88;;;-2.52;100.00
56182;BME280;51963;46.052;14.544;2022-12-13T04:47:43;97871.28;;;-2.48;100.00
56182;BME280;51963;46.052;14.544;2022-12-13T04:50:09;97865.84;;;-2.45;100.00
56182;BME280;51963;46.052;14.544;2022-12-13T04:52:35;97868.81;;;-2.50;100.00
56182;BME280;51963;46.052;14.544;2022-12-13T04:55:02;97866.22;;;-2.61;100.00
56182;BME280;51963;46.052;14.544;2022-12-13T04:57:28;97855.56;;;-2.81;100.00
56182;BME280;51963;46.052;14.544;2022-12-13T04:59:53;97851.69;;;-2.87;100.00
56182;BME280;51963;46.052;14.544;2022-12-13T05:02:19;97853.94;;;-2.71;100.00
56182;BME280;51963;46.052;14.544;2022-12-13T05:04:45;97859.25;;;-2.49;100.00
56182;BME280;51963;46.052;14.544;2022-12-13T05:07:11;97842.53;;;-2.80;100.00
56182;BME280;51963;46.052;14.544;2022-12-13T05:09:36;97842.84;;;-2.96;100.00
56182;BME280;51963;46.052;14.544;2022-12-13T05:12:02;97838.75;;;-2.98;100.00
56182;BME280;51963;46.052;14.544;2022-12-13T05:14:31;97828.53;;;-2.77;100.00
56182;BME280;51963;46.052;14.544;2022-12-13T05:16:58;97828.09;;;-2.37;100.00
56182;BME280;51963;46.052;14.544;2022-12-13T05:19:24;97833.13;;;-2.35;100.00
56182;BME280;51963;46.052;14.544;2022-12-13T05:21:50;97832.66;;;-2.40;100.00
56182;BME280;51963;46.052;14.544;2022-12-13T05:24:16;97836.44;;;-2.44;100.00
56182;BME280;51963;46.052;14.544;2022-12-13T05:26:42;97835.16;;;-2.61;100.00
56182;BME280;51963;46.052;14.544;2022-12-13T05:29:08;97826.78;;;-2.42;100.00
56182;BME280;51963;46.052;14.544;2022-12-13T05:31:34;97818.06;;;-2.41;100.00
56182;BME280;51963;46.052;14.544;2022-12-13T05:34:00;97808.91;;;-2.45;100.00
56182;BME280;51963;46.052;14.544;2022-12-13T05:36:26;97827.00;;;-2.80;100.00
56182;BME280;51963;46.052;14.544;2022-12-13T05:38:52;97833.38;;;-2.72;100.00
56182;BME280;51963;46.052;14.544;2022-12-13T05:41:21;97825.38;;;-2.58;100.00
56182;BME280;51963;46.052;14.544;2022-12-13T05:43:50;97824.19;;;-2.88;100.00
56182;BME280;51963;46.052;14.544;2022-12-13T05:46:15;97836.53;;;-2.69;100.00
56182;BME280;51963;46.052;14.544;2022-12-13T05:48:41;97833.63;;;-2.53;100.00
56182;BME280;51963;46.052;14.544;2022-12-13T05:51:08;97825.59;;;-2.72;100.00
56182;BME280;51963;46.052;14.544;2022-12-13T05:53:34;97827.81;;;-2.79;100.00
56182;BME280;51963;46.052;14.544;2022-12-13T05:56:01;97826.19;;;-2.80;100.00
56182;BME280;51963;46.052;14.544;2022-12-13T05:58:27;97824.19;;;-2.88;100.00
56182;BME280;51963;46.052;14.544;2022-12-13T06:00:53;97829.13;;;-2.96;100.00
56182;BME280;51963;46.052;14.544;2022-12-13T06:03:19;97825.47;;;-2.71;100.00
56182;BME280;51963;46.052;14.544;2022-12-13T06:05:45;97822.44;;;-2.53;100.00
56182;BME280;51963;46.052;14.544;2022-12-13T06:08:12;97829.59;;;-2.45;100.00
56182;BME280;51963;46.052;14.544;2022-12-13T06:10:38;97834.44;;;-2.52;100.00
56182;BME280;51963;46.052;14.544;2022-12-13T06:13:04;97822.09;;;-2.60;100.00
56182;BME280;51963;46.052;14.544;2022-12-13T06:15:30;97830.91;;;-2.51;100.00
56182;BME280;51963;46.052;14.544;2022-12-13T06:17:58;97846.56;;;-2.41;100.00
56182;BME280;51963;46.052;14.544;2022-12-13T06:20:24;97843.03;;;-2.63;100.00
56182;BME280;51963;46.052;14.544;2022-12-13T06:22:51;97846.75;;;-2.90;100.00
56182;BME280;51963;46.052;14.544;2022-12-13T06:25:17;97847.47;;;-2.76;100.00
56182;BME280;51963;46.052;14.544;2022-12-13T06:27:42;97833.84;;;-2.78;100.00
56182;BME280;51963;46.052;14.544;2022-12-13T06:30:09;97841.84;;;-2.82;100.00
56182;BME280;51963;46.052;14.544;2022-12-13T06:32:34;97843.47;;;-2.81;100.00
56182;BME280;51963;46.052;14.544;2022-12-13T06:35:01;97837.59;;;-2.71;100.00
56182;BME280;51963;46.052;14.544;2022-12-13T06:37:27;97838.53;;;-2.84;100.00
56182;BME280;51963;46.052;14.544;2022-12-13T06:39:53;97836.19;;;-2.87;100.00
56182;BME280;51963;46.052;14.544;2022-12-13T06:42:18;97846.28;;;-2.84;100.00
56182;BME280;51963;46.052;14.544;2022-12-13T06:44:44;97850.34;;;-3.15;100.00
56182;BME280;51963;46.052;14.544;2022-12-13T06:47:10;97845.13;;;-2.91;100.00
56182;BME280;51963;46.052;14.544;2022-12-13T06:49:36;97849.81;;;-2.96;100.00
56182;BME280;51963;46.052;14.544;2022-12-13T06:52:03;97855.56;;;-2.92;100.00
56182;BME280;51963;46.052;14.544;2022-12-13T06:54:29;97856.41;;;-2.81;100.00
56182;BME280;51963;46.052;14.544;2022-12-13T06:56:54;97861.44;;;-2.90;100.00
56182;BME280;51963;46.052;14.544;2022-12-13T06:59:20;97875.69;;;-2.85;100.00
56182;BME280;51963;46.052;14.544;2022-12-13T07:01:46;97868.66;;;-2.83;100.00
56182;BME280;51963;46.052;14.544;2022-12-13T07:04:12;97872.38;;;-2.98;100.00
56182;BME280;51963;46.052;14.544;2022-12-13T07:06:38;97870.59;;;-2.98;100.00
56182;BME280;51963;46.052;14.544;2022-12-13T07:09:04;97880.41;;;-2.90;100.00
56182;BME280;51963;46.052;14.544;2022-12-13T07:11:31;97876.03;;;-2.78;100.00
56182;BME280;51963;46.052;14.544;2022-12-13T07:13:58;97877.69;;;-2.77;100.00
56182;BME280;51963;46.052;14.544;2022-12-13T07:16:24;97888.28;;;-2.80;100.00
56182;BME280;51963;46.052;14.544;2022-12-13T07:18:58;97881.84;;;-2.74;100.00
56182;BME280;51963;46.052;14.544;2022-12-13T07:21:24;97892.66;;;-2.69;100.00
56182;BME280;51963;46.052;14.544;2022-12-13T07:23:51;97899.03;;;-2.62;100.00
56182;BME280;51963;46.052;14.544;2022-12-13T07:26:17;97881.09;;;-2.88;100.00
56182;BME280;51963;46.052;14.544;2022-12-13T07:28:43;97895.44;;;-2.95;100.00
56182;BME280;51963;46.052;14.544;2022-12-13T07:31:09;97903.53;;;-3.00;100.00
56182;BME280;51963;46.052;14.544;2022-12-13T07:33:35;97900.19;;;-2.66;100.00
56182;BME280;51963;46.052;14.544;2022-12-13T07:36:12;97886.41;;;-2.78;100.00
56182;BME280;51963;46.052;14.544;2022-12-13T07:38:39;97889.94;;;-2.68;100.00
56182;BME280;51963;46.052;14.544;2022-12-13T07:41:05;97891.03;;;-2.59;100.00
56182;BME280;51963;46.052;14.544;2022-12-13T07:43:32;97909.16;;;-2.47;100.00
56182;BME280;51963;46.052;14.544;2022-12-13T07:45:59;97899.75;;;-2.37;100.00
56182;BME280;51963;46.052;14.544;2022-12-13T07:48:26;97885.84;;;-2.59;100.00
56182;BME280;51963;46.052;14.544;2022-12-13T07:50:53;97903.19;;;-2.37;100.00
56182;BME280;51963;46.052;14.544;2022-12-13T07:53:19;97896.69;;;-2.42;100.00
56182;BME280;51963;46.052;14.544;2022-12-13T07:55:46;97893.53;;;-2.23;100.00
56182;BME280;51963;46.052;14.544;2022-12-13T07:58:13;97896.91;;;-2.00;100.00
56182;BME280;51963;46.052;14.544;2022-12-13T08:00:43;97891.84;;;-1.90;100.00
56182;BME280;51963;46.052;14.544;2022-12-13T08:03:10;97892.41;;;-1.86;100.00
56182;BME280;51963;46.052;14.544;2022-12-13T08:05:36;97892.78;;;-1.80;100.00
56182;BME280;51963;46.052;14.544;2022-12-13T08:08:03;97892.22;;;-2.06;100.00
56182;BME280;51963;46.052;14.544;2022-12-13T08:10:30;97899.00;;;-1.82;100.00
56182;BME280;51963;46.052;14.544;2022-12-13T08:12:56;97880.97;;;-1.72;100.00
56182;BME280;51963;46.052;14.544;2022-12-13T08:15:22;97899.44;;;-1.66;100.00
56182;BME280;51963;46.052;14.544;2022-12-13T08:17:50;97893.78;;;-1.59;100.00
56182;BME280;51963;46.052;14.544;2022-12-13T08:20:19;97893.78;;;-1.71;100.00
56182;BME280;51963;46.052;14.544;2022-12-13T08:22:53;97897.59;;;-1.86;100.00
56182;BME280;51963;46.052;14.544;2022-12-13T08:25:19;97895.94;;;-1.87;100.00
56182;BME280;51963;46.052;14.544;2022-12-13T08:27:44;97890.19;;;-1.91;100.00
56182;BME280;51963;46.052;14.544;2022-12-13T08:30:10;97889.97;;;-1.88;100.00
56182;BME280;51963;46.052;14.544;2022-12-13T08:32:36;97901.13;;;-1.87;100.00
56182;BME280;51963;46.052;14.544;2022-12-13T08:35:02;97895.97;;;-2.10;100.00
56182;BME280;51963;46.052;14.544;2022-12-13T08:37:28;97899.16;;;-1.95;100.00
56182;BME280;51963;46.052;14.544;2022-12-13T08:39:53;97883.03;;;-2.10;100.00
56182;BME280;51963;46.052;14.544;2022-12-13T08:42:19;97901.25;;;-1.78;100.00
56182;BME280;51963;46.052;14.544;2022-12-13T08:44:49;97894.50;;;-1.69;100.00
56182;BME280;51963;46.052;14.544;2022-12-13T08:47:15;97883.78;;;-1.64;100.00
56182;BME280;51963;46.052;14.544;2022-12-13T08:49:41;97894.88;;;-1.73;100.00
56182;BME280;51963;46.052;14.544;2022-12-13T08:52:07;97897.16;;;-2.03;100.00
56182;BME280;51963;46.052;14.544;2022-12-13T08:54:32;97893.84;;;-2.05;100.00
56182;BME280;51963;46.052;14.544;2022-12-13T08:57:00;97888.16;;;-1.76;100.00
56182;BME280;51963;46.052;14.544;2022-12-13T08:59:26;97892.50;;;-1.65;100.00
56182;BME280;51963;46.052;14.544;2022-12-13T09:01:52;97900.88;;;-1.73;100.00
56182;BME280;51963;46.052;14.544;2022-12-13T09:04:18;97897.56;;;-1.64;100.00
56182;BME280;51963;46.052;14.544;2022-12-13T09:06:43;97882.66;;;-1.50;100.00
56182;BME280;51963;46.052;14.544;2022-12-13T09:09:10;97896.50;;;-1.28;100.00
56182;BME280;51963;46.052;14.544;2022-12-13T09:11:38;97894.75;;;-1.72;100.00
56182;BME280;51963;46.052;14.544;2022-12-13T09:14:05;97896.66;;;-1.97;100.00
56182;BME280;51963;46.052;14.544;2022-12-13T09:16:32;97896.53;;;-1.72;100.00
56182;BME280;51963;46.052;14.544;2022-12-13T09:19:02;97886.69;;;-1.57;100.00
56182;BME280;51963;46.052;14.544;2022-12-13T09:21:28;97881.44;;;-1.35;100.00
56182;BME280;51963;46.052;14.544;2022-12-13T09:23:55;97893.09;;;-1.73;100.00
56182;BME280;51963;46.052;14.544;2022-12-13T09:26:21;97892.97;;;-1.60;100.00
56182;BME280;51963;46.052;14.544;2022-12-13T09:28:47;97878.88;;;-1.79;100.00
56182;BME280;51963;46.052;14.544;2022-12-13T09:31:15;97869.56;;;-1.93;100.00
56182;BME280;51963;46.052;14.544;2022-12-13T09:33:42;97884.91;;;-1.45;100.00
56182;BME280;51963;46.052;14.544;2022-12-13T09:36:19;97881.16;;;-1.53;100.00
56182;BME280;51963;46.052;14.544;2022-12-13T09:38:45;97879.13;;;-1.49;100.00
56182;BME280;51963;46.052;14.544;2022-12-13T09:41:16;97872.44;;;-1.30;100.00
56182;BME280;51963;46.052;14.544;2022-12-13T09:43:47;97860.28;;;-1.19;100.00
56182;BME280;51963;46.052;14.544;2022-12-13T09:46:22;97867.50;;;-1.01;100.00
56182;BME280;51963;46.052;14.544;2022-12-13T09:48:51;97866.84;;;-0.93;100.00
56182;BME280;51963;46.052;14.544;2022-12-13T09:51:20;97856.78;;;-1.08;100.00
56182;BME280;51963;46.052;14.544;2022-12-13T09:53:48;97852.19;;;-1.37;100.00
56182;BME280;51963;46.052;14.544;2022-12-13T09:56:17;97849.63;;;-1.15;100.00
56182;BME280;51963;46.052;14.544;2022-12-13T09:58:47;97853.59;;;-1.33;100.00
56182;BME280;51963;46.052;14.544;2022-12-13T10:01:13;97843.47;;;-0.93;100.00
56182;BME280;51963;46.052;14.544;2022-12-13T10:03:43;97846.63;;;-0.68;100.00
56182;BME280;51963;46.052;14.544;2022-12-13T10:06:16;97837.78;;;-0.87;100.00
56182;BME280;51963;46.052;14.544;2022-12-13T10:09:00;97837.44;;;-0.41;100.00
56182;BME280;51963;46.052;14.544;2022-12-13T10:11:27;97834.84;;;-0.41;100.00
56182;BME280;51963;46.052;14.544;2022-12-13T10:14:01;97838.63;;;-0.24;100.00
56182;BME280;51963;46.052;14.544;2022-12-13T10:19:14;97832.47;;;-0.13;100.00
56182;BME280;51963;46.052;14.544;2022-12-13T10:21:44;97842.97;;;-0.25;100.00
56182;BME280;51963;46.052;14.544;2022-12-13T10:24:18;97838.94;;;-0.08;100.00
56182;BME280;51963;46.052;14.544;2022-12-13T10:26:44;97827.91;;;-0.31;100.00
56182;BME280;51963;46.052;14.544;2022-12-13T10:29:10;97834.91;;;-0.32;100.00
56182;BME280;51963;46.052;14.544;2022-12-13T10:31:44;97831.97;;;-0.48;100.00
56182;BME280;51963;46.052;14.544;2022-12-13T10:34:28;97826.78;;;-0.38;100.00
56182;BME280;51963;46.052;14.544;2022-12-13T10:37:23;97825.31;;;-0.41;100.00
56182;BME280;51963;46.052;14.544;2022-12-13T10:39:50;97825.41;;;-0.42;100.00
56182;BME280;51963;46.052;14.544;2022-12-13T10:42:19;97826.72;;;-0.58;100.00
56182;BME280;51963;46.052;14.544;2022-12-13T10:44:45;97823.94;;;-0.66;100.00
56182;BME280;51963;46.052;14.544;2022-12-13T10:47:22;97815.34;;;-1.40;100.00
56182;BME280;51963;46.052;14.544;2022-12-13T10:49:53;97813.25;;;-1.25;100.00
56182;BME280;51963;46.052;14.544;2022-12-13T10:52:23;97811.16;;;-1.10;100.00
56182;BME280;51963;46.052;14.544;2022-12-13T10:54:50;97804.50;;;-1.24;100.00
56182;BME280;51963;46.052;14.544;2022-12-13T10:57:17;97800.53;;;-1.28;100.00
56182;BME280;51963;46.052;14.544;2022-12-13T10:59:46;97793.31;;;-1.46;100.00
56182;BME280;51963;46.052;14.544;2022-12-13T11:04:59;97816.84;;;-0.64;100.00
56182;BME280;51963;46.052;14.544;2022-12-13T11:07:32;97810.66;;;-1.25;100.00
56182;BME280;51963;46.052;14.544;2022-12-13T11:10:25;97808.69;;;-0.91;100.00
56182;BME280;51963;46.052;14.544;2022-12-13T11:13:04;97820.22;;;-0.74;100.00
56182;BME280;51963;46.052;14.544;2022-12-13T11:15:32;97800.34;;;-1.37;100.00
56182;BME280;51963;46.052;14.544;2022-12-13T11:18:01;97802.22;;;-0.96;100.00
56182;BME280;51963;46.052;14.544;2022-12-13T11:20:32;97806.22;;;-1.13;100.00
56182;BME280;51963;46.052;14.544;2022-12-13T11:23:24;97796.78;;;-0.93;100.00
56182;BME280;51963;46.052;14.544;2022-12-13T11:25:58;97806.63;;;-0.56;100.00
56182;BME280;51963;46.052;14.544;2022-12-13T11:31:56;97798.69;;;-0.13;100.00
56182;BME280;51963;46.052;14.544;2022-12-13T11:39:49;97805.00;;;-0.16;100.00
56182;BME280;51963;46.052;14.544;2022-12-13T11:42:46;97799.50;;;-0.23;100.00
56182;BME280;51963;46.052;14.544;2022-12-13T11:45:27;97797.56;;;-0.31;100.00
56182;BME280;51963;46.052;14.544;2022-12-13T11:50:26;97795.16;;;-0.12;100.00
56182;BME280;51963;46.052;14.544;2022-12-13T11:52:55;97788.31;;;-0.13;100.00
56182;BME280;51963;46.052;14.544;2022-12-13T11:55:23;97782.16;;;-0.12;100.00
56182;BME280;51963;46.052;14.544;2022-12-13T12:03:21;97769.41;;;-0.25;100.00
56182;BME280;51963;46.052;14.544;2022-12-13T12:06:36;97768.03;;;-0.30;100.00
56182;BME280;51963;46.052;14.544;2022-12-13T12:16:43;97757.56;;;-0.59;100.00
56182;BME280;51963;46.052;14.544;2022-12-13T12:19:18;97757.03;;;-0.53;100.00
56182;BME280;51963;46.052;14.544;2022-12-13T12:25:12;97757.84;;;-0.93;100.00
56182;BME280;51963;46.052;14.544;2022-12-13T12:28:01;97750.50;;;-0.88;100.00
56182;BME280;51963;46.052;14.544;2022-12-13T12:33:41;97748.41;;;-0.94;100.00
56182;BME280;51963;46.052;14.544;2022-12-13T12:36:35;97738.19;;;-0.96;100.00
56182;BME280;51963;46.052;14.544;2022-12-13T12:41:45;97731.19;;;-0.95;100.00
56182;BME280;51963;46.052;14.544;2022-12-13T12:47:29;97722.44;;;-1.04;100.00
56182;BME280;51963;46.052;14.544;2022-12-13T12:53:00;97724.94;;;-0.93;100.00
56182;BME280;51963;46.052;14.544;2022-12-13T12:55:37;97727.53;;;-0.93;100.00
56182;BME280;51963;46.052;14.544;2022-12-13T12:58:22;97732.75;;;-0.83;100.00
56182;BME280;51963;46.052;14.544;2022-12-13T13:03:21;97740.50;;;-0.52;100.00
56182;BME280;51963;46.052;14.544;2022-12-13T13:05:57;97728.88;;;-0.48;100.00
56182;BME280;51963;46.052;14.544;2022-12-13T13:08:29;97745.00;;;-0.54;100.00
56182;BME280;51963;46.052;14.544;2022-12-13T13:10:56;97733.84;;;-0.25;100.00
56182;BME280;51963;46.052;14.544;2022-12-13T13:16:02;97731.25;;;-0.35;100.00
56182;BME280;51963;46.052;14.544;2022-12-13T13:18:49;97724.69;;;-0.29;100.00
56182;BME280;51963;46.052;14.544;2022-12-13T13:26:56;97730.63;;;0.22;100.00
56182;BME280;51963;46.052;14.544;2022-12-13T13:34:26;97751.84;;;0.18;100.00
56182;BME280;51963;46.052;14.544;2022-12-13T13:36:59;97746.22;;;0.22;100.00
56182;BME280;51963;46.052;14.544;2022-12-13T13:42:16;97749.09;;;-0.01;100.00
56182;BME280;51963;46.052;14.544;2022-12-13T14:29:40;97732.97;;;-0.55;100.00
56182;BME280;51963;46.052;14.544;2022-12-13T14:32:09;97729.41;;;-0.64;100.00
56182;BME280;51963;46.052;14.544;2022-12-13T14:34:39;97730.22;;;-0.73;100.00
56182;BME280;51963;46.052;14.544;2022-12-13T14:37:19;97729.00;;;-0.59;100.00
56182;BME280;51963;46.052;14.544;2022-12-13T14:39:45;97732.66;;;-0.71;100.00
56182;BME280;51963;46.052;14.544;2022-12-13T14:42:41;97718.72;;;-0.70;100.00
56182;BME280;51963;46.052;14.544;2022-12-13T14:47:51;97702.56;;;-0.84;100.00
56182;BME280;51963;46.052;14.544;2022-12-13T14:50:19;97722.50;;;-0.84;100.00
56182;BME280;51963;46.052;14.544;2022-12-13T14:52:46;97725.03;;;-0.63;100.00
56182;BME280;51963;46.052;14.544;2022-12-13T14:57:52;97726.72;;;-0.42;100.00
56182;BME280;51963;46.052;14.544;2022-12-13T15:00:38;97722.50;;;-0.24;100.00
56182;BME280;51963;46.052;14.544;2022-12-13T15:03:04;97729.75;;;-0.27;100.00
56182;BME280;51963;46.052;14.544;2022-12-13T15:05:43;97725.38;;;-0.27;100.00
56182;BME280;51963;46.052;14.544;2022-12-13T15:08:15;97729.69;;;-0.67;100.00
56182;BME280;51963;46.052;14.544;2022-12-13T15:10:51;97734.19;;;-1.00;100.00
56182;BME280;51963;46.052;14.544;2022-12-13T15:13:25;97733.84;;;-0.85;100.00